createdAt,value
2022-10-24T00:01:45.073Z,4.17
2022-10-24T00:04:14.711Z,4.37
2022-10-24T00:06:45.570Z,6.23
2022-10-24T00:09:13.868Z,4.77
2022-10-24T00:11:43.231Z,5.27
2022-10-24T00:14:14.178Z,5.13
2022-10-24T00:16:42.457Z,3.93
2022-10-24T00:19:10.794Z,4.20
2022-10-24T00:21:43.497Z,3.30
2022-10-24T00:24:11.924Z,3.10
2022-10-24T00:26:40.403Z,2.77
2022-10-24T00:29:08.888Z,3.50
2022-10-24T00:31:37.830Z,3.87
2022-10-24T00:34:06.573Z,3.60
2022-10-24T00:36:35.165Z,3.90
2022-10-24T00:39:05.524Z,3.30
2022-10-24T00:41:35.919Z,4.17
2022-10-24T00:44:19.901Z,4.17
2022-10-24T00:46:52.126Z,4.07
2022-10-24T00:49:22.756Z,3.53
2022-10-24T00:51:54.004Z,3.97
2022-10-24T00:54:23.670Z,4.43
2022-10-24T00:57:00.398Z,4.60
2022-10-24T00:59:29.350Z,4.70
2022-10-24T01:01:57.681Z,4.90
2022-10-24T01:04:25.925Z,4.77
2022-10-24T01:07:03.720Z,4.70
2022-10-24T01:09:41.454Z,5.23
2022-10-24T01:12:23.419Z,5.30
2022-10-24T01:14:57.437Z,4.70
2022-10-24T01:17:30.879Z,5.10
2022-10-24T01:20:38.081Z,5.37
2022-10-24T01:23:17.964Z,5.70
2022-10-24T01:25:58.412Z,6.27
2022-10-24T01:28:30.796Z,6.07
2022-10-24T01:31:06.133Z,6.50
2022-10-24T01:33:38.862Z,6.20
2022-10-24T01:36:09.770Z,5.83
2022-10-24T01:38:42.634Z,6.93
2022-10-24T01:41:12.521Z,6.40
2022-10-24T01:43:43.887Z,6.20
2022-10-24T01:46:15.632Z,6.10
2022-10-24T01:48:47.141Z,7.00
2022-10-24T01:51:17.163Z,5.10
2022-10-24T01:53:46.363Z,6.43
2022-10-24T01:56:14.752Z,6.93
2022-10-24T01:58:43.014Z,6.47
2022-10-24T02:01:15.692Z,6.73
2022-10-24T02:03:47.830Z,7.80
2022-10-24T02:06:21.543Z,7.60
2022-10-24T02:08:54.675Z,7.60
2022-10-24T02:11:23.375Z,7.67
2022-10-24T02:13:53.759Z,7.33
2022-10-24T02:16:24.765Z,8.00
2022-10-24T02:18:54.739Z,6.60
2022-10-24T02:21:30.479Z,7.43
2022-10-24T02:24:02.957Z,7.97
2022-10-24T02:26:34.093Z,9.50
2022-10-24T02:29:06.107Z,7.40
2022-10-24T02:31:39.397Z,7.50
2022-10-24T02:34:08.899Z,8.00
2022-10-24T02:36:38.256Z,8.33
2022-10-24T02:39:08.632Z,9.27
2022-10-24T02:41:38.202Z,7.70
2022-10-24T02:44:07.534Z,9.30
2022-10-24T02:46:37.322Z,7.73
2022-10-24T02:49:06.270Z,8.83
2022-10-24T02:51:37.124Z,8.53
2022-10-24T02:54:05.991Z,8.57
2022-10-24T02:56:34.783Z,8.33
2022-10-24T02:59:03.099Z,8.30
2022-10-24T03:01:31.460Z,4.60
2022-10-24T03:04:01.154Z,3.80
2022-10-24T03:06:29.426Z,3.60
2022-10-24T03:09:00.221Z,2.37
2022-10-24T03:11:28.671Z,1.73
2022-10-24T03:13:56.903Z,3.20
2022-10-24T03:16:26.035Z,3.10
2022-10-24T03:18:54.322Z,3.60
2022-10-24T03:21:24.229Z,3.90
2022-10-24T03:23:52.508Z,3.20
2022-10-24T03:26:21.290Z,3.00
2022-10-24T03:28:49.927Z,3.27
2022-10-24T03:31:18.326Z,3.57
2022-10-24T03:33:46.644Z,3.67
2022-10-24T03:36:16.420Z,4.03
2022-10-24T03:38:48.413Z,3.53
2022-10-24T03:41:16.781Z,3.20
2022-10-24T03:43:45.151Z,4.07
2022-10-24T03:46:13.486Z,3.40
2022-10-24T03:48:41.709Z,3.33
2022-10-24T03:51:10.026Z,3.37
2022-10-24T03:53:38.375Z,3.00
2022-10-24T03:56:08.992Z,3.47
2022-10-24T03:58:37.245Z,3.80
2022-10-24T04:01:05.832Z,4.63
2022-10-24T04:03:34.192Z,3.47
2022-10-24T04:06:02.635Z,3.67
2022-10-24T04:08:31.055Z,3.43
2022-10-24T04:10:59.368Z,4.00
2022-10-24T04:13:29.080Z,3.83
2022-10-24T04:15:57.496Z,3.50
2022-10-24T04:18:25.903Z,3.43
2022-10-24T04:20:54.348Z,3.50
2022-10-24T04:23:22.952Z,4.20
2022-10-24T04:25:51.346Z,3.27
2022-10-24T04:28:22.000Z,3.03
2022-10-24T04:30:56.850Z,3.50
2022-10-24T04:33:25.659Z,3.47
2022-10-24T04:35:54.497Z,3.40
2022-10-24T04:38:23.188Z,4.03
2022-10-24T04:40:53.134Z,3.63
2022-10-24T04:43:22.994Z,3.80
2022-10-24T04:45:51.325Z,2.70
2022-10-24T04:48:23.785Z,3.63
2022-10-24T04:50:52.743Z,4.40
2022-10-24T04:53:21.272Z,3.17
2022-10-24T04:55:50.264Z,3.40
2022-10-24T04:58:18.564Z,3.40
2022-10-24T05:00:50.092Z,3.40
2022-10-24T05:03:18.707Z,4.40
2022-10-24T05:05:49.375Z,3.50
2022-10-24T05:08:18.173Z,3.50
2022-10-24T05:10:46.599Z,3.90
2022-10-24T05:13:15.021Z,3.60
2022-10-24T05:15:44.687Z,3.60
2022-10-24T05:18:19.012Z,3.73
2022-10-24T05:20:48.840Z,3.70
2022-10-24T05:23:17.432Z,2.83
2022-10-24T05:25:45.704Z,4.17
2022-10-24T05:28:16.895Z,3.90
2022-10-24T05:30:45.476Z,4.07
2022-10-24T05:33:14.257Z,3.67
2022-10-24T05:35:42.714Z,4.60
2022-10-24T05:38:12.412Z,4.00
2022-10-24T05:40:40.909Z,3.50
2022-10-24T05:43:09.326Z,4.50
2022-10-24T05:45:38.636Z,4.13
2022-10-24T05:48:07.556Z,4.33
2022-10-24T05:50:36.078Z,3.90
2022-10-24T05:53:04.441Z,4.77
2022-10-24T05:55:34.627Z,3.87
2022-10-24T05:58:03.181Z,4.70
2022-10-24T06:00:33.985Z,6.17
2022-10-24T06:03:02.402Z,5.17
2022-10-24T06:05:31.198Z,5.07
2022-10-24T06:08:00.461Z,4.53
2022-10-24T06:10:28.821Z,4.97
2022-10-24T06:12:58.645Z,5.00
2022-10-24T06:15:26.920Z,4.70
2022-10-24T06:17:55.344Z,4.13
2022-10-24T06:20:23.660Z,5.67
2022-10-24T06:22:52.007Z,5.50
2022-10-24T06:25:20.395Z,6.03
2022-10-24T06:27:48.719Z,5.60
2022-10-24T06:30:19.344Z,5.30
2022-10-24T06:32:48.015Z,5.70
2022-10-24T06:35:16.867Z,6.43
2022-10-24T06:37:53.169Z,6.03
2022-10-24T06:40:22.323Z,5.20
2022-10-24T06:42:50.835Z,5.83
2022-10-24T06:45:22.009Z,7.00
2022-10-24T06:47:53.229Z,6.37
2022-10-24T06:50:22.816Z,6.23
2022-10-24T06:52:51.463Z,6.80
2022-10-24T06:55:19.738Z,7.60
2022-10-24T06:57:48.350Z,7.00
2022-10-24T07:00:17.419Z,6.90
2022-10-24T07:02:47.423Z,7.60
2022-10-24T07:05:16.092Z,6.93
2022-10-24T07:07:45.324Z,6.40
2022-10-24T07:10:15.230Z,6.90
2022-10-24T07:12:44.629Z,7.23
2022-10-24T07:15:14.277Z,6.80
2022-10-24T07:17:43.006Z,7.30
2022-10-24T07:20:14.351Z,6.37
2022-10-24T07:22:43.748Z,5.90
2022-10-24T07:25:13.736Z,6.20
2022-10-24T07:27:42.083Z,6.73
2022-10-24T07:30:14.893Z,6.33
2022-10-24T07:32:43.442Z,7.03
2022-10-24T07:35:14.746Z,5.73
2022-10-24T07:37:45.604Z,6.40
2022-10-24T07:40:14.333Z,5.90
2022-10-24T07:42:43.083Z,6.87
2022-10-24T07:45:12.366Z,5.93
2022-10-24T07:47:40.643Z,6.00
2022-10-24T07:50:10.293Z,5.63
2022-10-24T07:52:39.933Z,6.17
2022-10-24T07:55:08.689Z,7.27
2022-10-24T07:57:36.920Z,6.47
2022-10-24T08:00:06.180Z,6.43
2022-10-24T08:02:40.731Z,5.10
2022-10-24T08:05:09.960Z,6.30
2022-10-24T08:07:39.787Z,5.67
2022-10-24T08:10:10.472Z,5.10
2022-10-24T08:12:38.709Z,6.07
2022-10-24T08:15:07.613Z,5.73
2022-10-24T08:17:36.493Z,6.47
2022-10-24T08:20:05.637Z,4.83
2022-10-24T08:22:34.910Z,5.03
2022-10-24T08:25:08.304Z,4.67
2022-10-24T08:27:36.842Z,4.43
2022-10-24T08:30:06.034Z,4.93
2022-10-24T08:32:34.458Z,4.80
2022-10-24T08:35:03.075Z,4.00
2022-10-24T08:37:31.466Z,4.67
2022-10-24T08:39:59.919Z,4.30
2022-10-24T08:42:29.546Z,4.50
2022-10-24T08:44:57.825Z,5.03
2022-10-24T08:47:30.821Z,5.17
2022-10-24T08:50:06.572Z,4.90
2022-10-24T08:52:38.391Z,5.93
2022-10-24T08:55:25.258Z,5.57
2022-10-24T08:57:58.207Z,4.73
2022-10-24T09:00:28.703Z,5.30
2022-10-24T09:03:01.431Z,4.20
2022-10-24T09:05:34.624Z,4.23
2022-10-24T09:08:23.651Z,4.17
2022-10-24T09:10:57.158Z,4.13
2022-10-24T09:13:29.230Z,4.00
2022-10-24T09:16:05.247Z,3.83
2022-10-24T09:18:37.910Z,4.30
2022-10-24T09:21:27.886Z,4.33
2022-10-24T09:23:56.611Z,4.53
2022-10-24T09:26:28.861Z,3.70
2022-10-24T09:28:58.683Z,4.03
2022-10-24T09:31:28.167Z,4.20
2022-10-24T09:34:00.561Z,3.77
2022-10-24T09:36:31.801Z,4.37
2022-10-24T09:39:24.093Z,4.40
2022-10-24T09:41:52.638Z,4.40
2022-10-24T09:45:20.445Z,3.60
2022-10-24T09:47:56.559Z,3.80
2022-10-24T09:50:25.658Z,4.00
2022-10-24T09:52:59.510Z,3.47
2022-10-24T09:55:31.256Z,3.60
2022-10-24T09:58:05.358Z,3.87
2022-10-24T10:01:18.602Z,3.03
2022-10-24T10:04:07.568Z,3.73
2022-10-24T10:06:44.331Z,2.97
2022-10-24T10:09:15.585Z,3.47
2022-10-24T10:12:00.716Z,3.37
2022-10-24T10:14:33.176Z,3.37
2022-10-24T10:17:03.422Z,3.37
2022-10-24T10:19:54.835Z,3.37
2022-10-24T10:22:27.188Z,3.40
2022-10-24T10:24:57.922Z,3.97
2022-10-24T10:27:36.269Z,3.10
2022-10-24T10:30:21.634Z,2.80
2022-10-24T10:33:08.877Z,3.30
2022-10-24T10:35:44.477Z,3.53
2022-10-24T10:38:26.412Z,4.80
2022-10-24T10:41:00.030Z,3.40
2022-10-24T10:43:34.913Z,3.43
2022-10-24T10:46:13.689Z,3.93
2022-10-24T10:48:50.914Z,2.90
2022-10-24T10:51:27.073Z,3.30
2022-10-24T10:54:00.965Z,3.27
2022-10-24T10:56:34.026Z,2.70
2022-10-24T10:59:14.986Z,3.50
2022-10-24T11:01:49.587Z,3.67
2022-10-24T11:04:24.559Z,3.50
2022-10-24T11:07:04.178Z,4.40
2022-10-24T11:09:35.564Z,4.17
2022-10-24T11:12:12.865Z,3.90
2022-10-24T11:14:43.748Z,3.80
2022-10-24T11:17:15.928Z,3.87
2022-10-24T11:20:02.738Z,4.90
2022-10-24T11:22:38.571Z,4.00
2022-10-24T11:25:09.928Z,3.83
2022-10-24T11:27:42.097Z,4.60
2022-10-24T11:30:15.810Z,4.40
2022-10-24T11:32:48.473Z,5.07
2022-10-24T11:35:23.664Z,4.63
2022-10-24T11:37:57.569Z,4.77
2022-10-24T11:43:01.747Z,5.23
2022-10-24T11:45:34.590Z,5.57
2022-10-24T11:48:11.911Z,6.00
2022-10-24T11:50:44.369Z,4.70
2022-10-24T11:53:22.814Z,6.40
2022-10-24T11:55:55.817Z,6.10
2022-10-24T11:58:27.269Z,5.10
2022-10-24T12:01:15.152Z,5.57
2022-10-24T12:04:04.396Z,6.20
2022-10-24T12:06:47.185Z,5.00
2022-10-24T12:09:44.642Z,4.27
2022-10-24T12:12:41.969Z,4.63
2022-10-24T12:15:19.378Z,5.10
2022-10-24T12:17:57.664Z,4.20
2022-10-24T12:20:26.925Z,3.37
2022-10-24T12:22:55.882Z,4.13
2022-10-24T12:25:32.344Z,3.80
2022-10-24T12:28:02.535Z,3.97
2022-10-24T12:30:33.302Z,3.90
2022-10-24T12:33:11.379Z,2.97
2022-10-24T12:35:49.291Z,4.10
2022-10-24T12:39:09.528Z,4.00
2022-10-24T12:41:41.907Z,4.23
2022-10-24T12:44:41.224Z,4.33
2022-10-24T12:47:39.067Z,3.80
2022-10-24T12:50:40.743Z,4.50
2022-10-24T12:53:20.337Z,4.00
2022-10-24T12:56:15.556Z,4.40
2022-10-24T12:58:47.444Z,4.27
2022-10-24T13:01:27.597Z,4.43
2022-10-24T13:04:19.715Z,5.70
2022-10-24T13:07:00.076Z,4.73
2022-10-24T13:09:34.962Z,4.83
2022-10-24T13:12:16.939Z,4.53
2022-10-24T13:14:58.509Z,5.47
2022-10-24T13:17:34.126Z,4.90
2022-10-24T13:20:08.369Z,5.80
2022-10-24T13:22:37.675Z,5.20
2022-10-24T13:25:29.840Z,5.90
2022-10-24T13:28:43.546Z,5.80
2022-10-24T13:31:48.499Z,4.80
2022-10-24T13:34:32.960Z,5.00
2022-10-24T13:37:05.625Z,6.27
2022-10-24T13:39:39.469Z,4.27
2022-10-24T13:42:22.664Z,4.97
2022-10-24T13:44:52.935Z,6.77
2022-10-24T13:47:25.688Z,4.70
2022-10-24T13:49:58.798Z,5.23
2022-10-24T13:52:32.641Z,4.77
2022-10-24T13:55:05.732Z,4.73
2022-10-24T13:57:37.576Z,4.77
2022-10-24T14:00:09.646Z,5.27
2022-10-24T14:02:42.972Z,4.90
2022-10-24T14:05:30.545Z,5.70
2022-10-24T14:07:59.177Z,4.87
2022-10-24T14:10:27.967Z,4.70
2022-10-24T14:12:58.838Z,5.40
2022-10-24T14:15:29.760Z,5.40
2022-10-24T14:18:01.794Z,5.13
2022-10-24T14:20:33.348Z,5.10
2022-10-24T14:23:01.924Z,5.27
2022-10-24T14:25:33.220Z,5.70
2022-10-24T14:28:03.928Z,4.97
2022-10-24T14:30:35.042Z,5.80
2022-10-24T14:33:24.157Z,5.60
2022-10-24T14:35:55.279Z,5.37
2022-10-24T14:38:27.589Z,4.87
2022-10-24T14:41:08.329Z,5.37
2022-10-24T14:43:40.107Z,4.93
2022-10-24T14:46:21.223Z,4.90
2022-10-24T14:48:54.958Z,4.87
2022-10-24T14:51:27.371Z,4.60
2022-10-24T14:53:56.059Z,5.67
2022-10-24T14:56:31.052Z,5.50
2022-10-24T14:59:01.212Z,4.90
2022-10-24T15:01:30.483Z,5.20
2022-10-24T15:04:02.460Z,5.27
2022-10-24T15:06:38.585Z,4.83
2022-10-24T15:09:15.864Z,6.00
2022-10-24T15:11:46.104Z,6.10
2022-10-24T15:14:32.751Z,5.70
2022-10-24T15:17:01.836Z,5.60
2022-10-24T15:19:31.602Z,4.93
2022-10-24T15:21:59.997Z,5.30
2022-10-24T15:24:28.347Z,5.63
2022-10-24T15:27:10.344Z,5.77
2022-10-24T15:29:39.247Z,5.03
2022-10-24T15:32:11.807Z,5.03
2022-10-24T15:34:41.541Z,5.53
2022-10-24T15:37:18.897Z,5.67
2022-10-24T15:39:47.244Z,7.27
2022-10-24T15:42:17.644Z,5.83
2022-10-24T15:44:49.020Z,6.87
2022-10-24T15:47:17.628Z,5.87
2022-10-24T15:49:47.529Z,7.87
2022-10-24T15:52:17.443Z,6.43
2022-10-24T15:54:45.855Z,6.10
2022-10-24T15:57:15.078Z,6.60
2022-10-24T15:59:43.297Z,42.00
2022-10-24T16:02:17.507Z,26.60
2022-10-24T16:04:47.404Z,15.77
2022-10-24T16:07:16.156Z,7.73
2022-10-24T16:09:44.719Z,11.17
2022-10-24T16:12:14.138Z,11.00
2022-10-24T16:14:42.528Z,13.83
2022-10-24T16:17:11.388Z,9.13
2022-10-24T16:19:40.322Z,9.43
2022-10-24T16:22:11.230Z,6.87
2022-10-24T16:24:41.343Z,9.07
2022-10-24T16:27:10.311Z,7.27
2022-10-24T16:29:39.032Z,8.13
2022-10-24T16:32:07.907Z,8.37
2022-10-24T16:34:36.329Z,8.80
2022-10-24T16:37:05.525Z,7.30
2022-10-24T16:39:36.446Z,8.20
2022-10-24T16:42:07.344Z,7.13
2022-10-24T16:44:37.130Z,8.70
2022-10-24T16:47:06.495Z,7.60
2022-10-24T16:49:35.791Z,8.23
2022-10-24T16:52:06.312Z,7.67
2022-10-24T16:54:36.535Z,8.30
2022-10-24T16:57:05.243Z,9.03
2022-10-24T16:59:43.650Z,7.80
2022-10-24T17:02:13.818Z,9.23
2022-10-24T17:04:44.144Z,8.40
2022-10-24T17:07:16.133Z,9.10
2022-10-24T17:09:50.489Z,7.93
2022-10-24T17:12:22.190Z,9.43
2022-10-24T17:14:58.819Z,10.50
2022-10-24T17:17:28.151Z,8.60
2022-10-24T17:20:07.188Z,8.67
2022-10-24T17:22:41.747Z,8.23
2022-10-24T17:25:21.675Z,7.87
2022-10-24T17:27:58.814Z,9.10
2022-10-24T17:30:31.213Z,8.57
2022-10-24T17:33:01.487Z,6.53
2022-10-24T17:35:32.435Z,7.50
2022-10-24T17:38:10.106Z,8.20
2022-10-24T17:40:47.039Z,7.80
2022-10-24T17:43:20.097Z,8.10
2022-10-24T17:45:52.375Z,9.00
2022-10-24T17:48:23.380Z,8.33
2022-10-24T17:50:58.131Z,9.17
2022-10-24T17:53:30.330Z,8.67
2022-10-24T17:56:06.205Z,8.50
2022-10-24T17:58:36.616Z,8.93
2022-10-24T18:01:08.391Z,9.30
2022-10-24T18:03:40.712Z,8.10
2022-10-24T18:06:15.870Z,4.00
2022-10-24T18:08:48.562Z,7.03
2022-10-24T18:11:22.870Z,4.10
2022-10-24T18:13:53.140Z,5.13
2022-10-24T18:16:26.181Z,2.03
2022-10-24T18:19:00.813Z,1.27
2022-10-24T18:21:30.442Z,2.33
2022-10-24T18:24:01.521Z,1.10
2022-10-24T18:26:45.650Z,2.43
2022-10-24T18:32:58.926Z,1.37
2022-10-24T18:35:33.808Z,2.37
2022-10-24T18:38:03.722Z,1.30
2022-10-24T18:40:38.022Z,1.10
2022-10-24T18:43:20.032Z,0.77
2022-10-24T18:45:53.184Z,1.13
2022-10-24T18:48:25.105Z,1.47
2022-10-24T18:50:59.533Z,1.30
2022-10-24T18:53:43.394Z,0.93
2022-10-24T18:56:18.624Z,0.80
2022-10-24T18:58:57.967Z,1.00
2022-10-24T19:01:34.648Z,0.70
2022-10-24T19:04:10.446Z,1.00
2022-10-24T19:06:41.605Z,0.87
2022-10-24T19:09:19.833Z,1.20
2022-10-24T19:11:51.608Z,1.60
2022-10-24T19:14:29.321Z,1.30
2022-10-24T19:17:00.657Z,0.90
2022-10-24T19:22:03.798Z,1.07
2022-10-24T19:24:35.768Z,0.80
2022-10-24T19:27:10.701Z,0.53
2022-10-24T19:29:42.545Z,0.90
2022-10-24T19:32:12.228Z,1.03
2022-10-24T19:34:43.680Z,0.53
2022-10-24T19:37:16.597Z,0.57
2022-10-24T19:39:45.355Z,0.93
2022-10-24T19:42:17.068Z,0.70
2022-10-24T19:44:54.881Z,0.40
2022-10-24T19:47:25.216Z,0.60
2022-10-24T19:49:54.260Z,0.60
2022-10-24T19:52:25.271Z,0.60
2022-10-24T19:54:55.368Z,0.63
2022-10-24T19:57:24.988Z,0.60
2022-10-24T19:59:56.610Z,0.60
2022-10-24T20:02:39.455Z,0.60
2022-10-24T20:05:10.849Z,0.70
2022-10-24T20:07:40.279Z,0.53
2022-10-24T20:10:12.251Z,0.70
2022-10-24T20:12:42.062Z,1.10
2022-10-24T20:15:14.479Z,0.97
2022-10-24T20:17:43.784Z,0.77
2022-10-24T20:20:13.447Z,1.10
2022-10-24T20:22:43.002Z,2.20
2022-10-24T20:25:12.345Z,2.80
2022-10-24T20:27:50.330Z,3.53
2022-10-24T20:30:23.961Z,2.57
2022-10-24T20:33:15.081Z,2.33
2022-10-24T20:35:44.428Z,1.97
2022-10-24T20:38:16.406Z,2.17
2022-10-24T20:40:46.562Z,2.30
2022-10-24T20:43:15.046Z,2.50
2022-10-24T20:45:45.035Z,2.70
2022-10-24T20:48:14.095Z,2.23
2022-10-24T20:50:45.306Z,2.20
2022-10-24T20:53:15.847Z,2.63
2022-10-24T20:55:45.059Z,1.93
2022-10-24T20:58:13.976Z,2.00
2022-10-24T21:00:42.726Z,2.03
2022-10-24T21:03:14.423Z,1.83
2022-10-24T21:05:44.853Z,2.90
2022-10-24T21:08:14.264Z,4.07
2022-10-24T21:10:46.990Z,4.00
2022-10-24T21:13:18.155Z,3.80
2022-10-24T21:15:47.558Z,4.17
2022-10-24T21:18:17.442Z,4.13
2022-10-24T21:20:45.709Z,3.27
2022-10-24T21:23:13.948Z,3.10
2022-10-24T21:28:10.487Z,3.50
2022-10-24T21:30:38.759Z,3.53
2022-10-24T21:33:10.664Z,2.97
2022-10-24T21:35:40.906Z,5.10
2022-10-24T21:38:09.168Z,3.80
2022-10-24T21:40:37.422Z,4.07
2022-10-24T21:43:05.667Z,4.40
2022-10-24T21:45:33.902Z,3.40
2022-10-24T21:48:02.180Z,3.67
2022-10-24T21:50:30.426Z,3.33
2022-10-24T21:53:00.439Z,4.33
2022-10-24T21:55:29.191Z,4.03
2022-10-24T21:57:57.411Z,4.00
2022-10-24T22:00:25.772Z,4.53
2022-10-24T22:02:54.236Z,4.00
2022-10-24T22:05:22.626Z,4.20
2022-10-24T22:07:51.293Z,3.60
2022-10-24T22:10:21.068Z,3.87
2022-10-24T22:12:49.425Z,3.83
2022-10-24T22:15:17.725Z,3.80
2022-10-24T22:17:46.205Z,5.30
2022-10-24T22:20:14.573Z,4.30
2022-10-24T22:22:42.785Z,4.40
2022-10-24T22:25:11.074Z,5.10
2022-10-24T22:27:40.683Z,4.53
2022-10-24T22:30:09.869Z,3.73
2022-10-24T22:32:38.424Z,4.10
2022-10-24T22:35:07.813Z,4.40
2022-10-24T22:37:36.513Z,4.47
2022-10-24T22:40:06.618Z,4.27
2022-10-24T22:42:35.179Z,4.20
2022-10-24T22:45:05.973Z,4.83
2022-10-24T22:48:05.926Z,4.20
2022-10-24T22:50:50.090Z,4.50
2022-10-24T22:53:20.146Z,4.37
2022-10-24T22:56:08.679Z,4.70
2022-10-24T22:58:37.315Z,4.33
2022-10-24T23:01:16.792Z,4.30
2022-10-24T23:04:03.649Z,4.17
2022-10-24T23:06:38.959Z,3.60
2022-10-24T23:09:07.277Z,4.67
2022-10-24T23:11:36.027Z,4.10
2022-10-24T23:14:05.211Z,4.00
2022-10-24T23:16:39.677Z,3.90
2022-10-24T23:19:16.342Z,4.10
2022-10-24T23:21:50.311Z,4.17
2022-10-24T23:24:19.443Z,3.60
2022-10-24T23:26:57.421Z,4.07
2022-10-24T23:29:31.640Z,3.53
2022-10-24T23:32:02.534Z,3.67
2022-10-24T23:34:31.674Z,3.03
2022-10-24T23:37:02.728Z,2.50
2022-10-24T23:39:33.928Z,2.00
2022-10-24T23:42:04.933Z,2.40
2022-10-24T23:44:33.756Z,2.80
2022-10-24T23:47:06.820Z,2.93
2022-10-24T23:49:37.509Z,2.20
2022-10-24T23:52:13.790Z,2.37
2022-10-24T23:54:42.655Z,2.77
2022-10-24T23:57:16.482Z,1.77
2022-10-24T23:59:45.127Z,2.47
